createdAt,value
2018-04-02T00:02:05.665Z,20.70
2018-04-02T00:04:33.299Z,20.60
2018-04-02T00:07:00.180Z,20.70
2018-04-02T00:09:27.247Z,20.10
2018-04-02T00:11:55.309Z,20.60
2018-04-02T00:14:22.241Z,20.00
2018-04-02T00:16:49.204Z,20.00
2018-04-02T00:19:16.533Z,20.10
2018-04-02T00:21:43.455Z,20.20
2018-04-02T00:24:10.574Z,20.20
2018-04-02T00:26:38.369Z,20.20
2018-04-02T00:29:06.324Z,20.20
2018-04-02T00:31:34.298Z,20.00
2018-04-02T00:34:01.270Z,20.00
2018-04-02T00:36:28.859Z,20.10
2018-04-02T00:38:57.076Z,20.20
2018-04-02T00:41:24.152Z,20.20
2018-04-02T00:43:51.091Z,20.00
2018-04-02T00:46:18.659Z,20.10
2018-04-02T00:48:45.723Z,19.90
2018-04-02T00:51:14.346Z,19.90
2018-04-02T00:53:41.360Z,20.00
2018-04-02T00:56:08.502Z,20.10
2018-04-02T00:58:35.965Z,19.90
2018-04-02T01:01:02.908Z,20.00
2018-04-02T01:03:29.969Z,20.10
2018-04-02T01:05:57.442Z,19.90
2018-04-02T01:08:24.599Z,20.20
2018-04-02T01:10:53.003Z,20.10
2018-04-02T01:13:20.113Z,19.50
2018-04-02T01:15:47.071Z,19.50
2018-04-02T01:18:14.716Z,19.50
2018-04-02T01:20:41.724Z,20.10
2018-04-02T01:23:09.695Z,20.10
2018-04-02T01:25:37.531Z,19.90
2018-04-02T01:28:04.444Z,19.50
2018-04-02T01:30:32.148Z,19.40
2018-04-02T01:32:59.196Z,20.10
2018-04-02T01:35:26.344Z,19.50
2018-04-02T01:37:54.344Z,19.90
2018-04-02T01:40:21.982Z,19.80
2018-04-02T01:42:49.759Z,19.40
2018-04-02T01:45:16.683Z,19.40
2018-04-02T01:47:43.632Z,20.00
2018-04-02T01:50:10.621Z,19.40
2018-04-02T01:52:37.778Z,19.50
2018-04-02T01:55:05.354Z,19.60
2018-04-02T01:57:33.009Z,19.60
2018-04-02T02:00:00.060Z,19.70
2018-04-02T02:02:27.023Z,19.50
2018-04-02T02:04:54.712Z,19.40
2018-04-02T02:07:22.545Z,19.30
2018-04-02T02:09:50.299Z,19.30
2018-04-02T02:12:17.409Z,19.40
2018-04-02T02:14:44.420Z,19.30
2018-04-02T02:17:12.274Z,19.50
2018-04-02T02:19:39.483Z,19.30
2018-04-02T02:22:06.395Z,19.30
2018-04-02T02:24:33.748Z,19.30
2018-04-02T02:27:00.796Z,19.30
2018-04-02T02:29:27.792Z,19.50
2018-04-02T02:34:27.900Z,19.50
2018-04-02T02:36:55.754Z,19.30
2018-04-02T02:39:22.842Z,19.50
2018-04-02T02:41:49.794Z,19.30
2018-04-02T02:44:18.267Z,19.20
2018-04-02T02:46:45.320Z,19.30
2018-04-02T02:49:12.384Z,19.30
2018-04-02T02:51:40.345Z,19.30
2018-04-02T02:54:07.491Z,19.50
2018-04-02T02:56:34.544Z,19.30
2018-04-02T02:59:02.621Z,19.30
2018-04-02T03:01:29.680Z,19.30
2018-04-02T03:03:56.833Z,19.40
2018-04-02T03:06:25.005Z,19.20
2018-04-02T03:08:52.186Z,19.10
2018-04-02T03:11:20.754Z,19.20
2018-04-02T03:13:47.809Z,19.10
2018-04-02T03:16:15.549Z,19.40
2018-04-02T03:18:42.512Z,19.20
2018-04-02T03:21:09.580Z,19.20
2018-04-02T03:23:37.243Z,19.20
2018-04-02T03:26:04.395Z,18.70
2018-04-02T03:28:31.362Z,19.30
2018-04-02T03:30:59.129Z,19.20
2018-04-02T03:33:26.268Z,18.60
2018-04-02T03:35:53.322Z,18.60
2018-04-02T03:38:21.189Z,19.10
2018-04-02T03:40:48.295Z,19.20
2018-04-02T03:43:16.216Z,18.90
2018-04-02T03:45:43.130Z,18.80
2018-04-02T03:48:10.090Z,19.30
2018-04-02T03:50:37.711Z,19.90
2018-04-02T03:53:05.572Z,20.70
2018-04-02T03:55:32.512Z,20.90
2018-04-02T03:58:00.100Z,21.50
2018-04-02T04:00:27.855Z,21.70
2018-04-02T04:02:55.718Z,21.70
2018-04-02T04:05:22.660Z,21.80
2018-04-02T04:07:50.177Z,21.90
2018-04-02T04:10:17.393Z,22.00
2018-04-02T04:12:44.453Z,22.40
2018-04-02T04:15:12.140Z,21.90
2018-04-02T04:17:39.770Z,22.40
2018-04-02T04:20:07.024Z,22.00
2018-04-02T04:22:34.454Z,22.40
2018-04-02T04:25:01.464Z,21.90
2018-04-02T04:27:29.825Z,22.40
2018-04-02T04:29:56.768Z,21.80
2018-04-02T04:32:23.923Z,21.90
2018-04-02T04:34:51.495Z,21.80
2018-04-02T04:37:18.520Z,21.90
2018-04-02T04:39:46.297Z,21.70
2018-04-02T04:42:13.237Z,21.70
2018-04-02T04:44:40.215Z,21.70
2018-04-02T04:47:07.991Z,21.60
2018-04-02T04:49:35.249Z,21.70
2018-04-02T04:52:02.206Z,21.60
2018-04-02T04:54:30.115Z,21.80
2018-04-02T04:56:57.223Z,21.60
2018-04-02T04:59:24.143Z,21.50
2018-04-02T05:01:51.839Z,21.40
2018-04-02T05:04:18.995Z,21.50
2018-04-02T05:06:45.956Z,21.60
2018-04-02T05:09:13.499Z,21.50
2018-04-02T05:11:40.464Z,21.60
2018-04-02T05:14:08.381Z,21.10
2018-04-02T05:16:35.482Z,21.40
2018-04-02T05:19:02.432Z,21.30
2018-04-02T05:21:30.103Z,21.00
2018-04-02T05:23:57.176Z,21.00
2018-04-02T05:26:25.851Z,21.00
2018-04-02T05:28:52.893Z,21.00
2018-04-02T05:31:19.959Z,21.00
2018-04-02T05:33:47.463Z,21.00
2018-04-02T05:36:14.556Z,20.70
2018-04-02T05:38:41.427Z,21.00
2018-04-02T05:41:09.189Z,21.00
2018-04-02T05:43:36.261Z,20.90
2018-04-02T05:46:04.612Z,20.70
2018-04-02T05:48:31.884Z,20.80
2018-04-02T05:50:58.834Z,20.90
2018-04-02T05:53:26.639Z,20.70
2018-04-02T05:55:53.755Z,20.80
2018-04-02T05:58:20.703Z,20.90
2018-04-02T06:00:48.646Z,20.90
2018-04-02T06:03:15.528Z,20.70
2018-04-02T06:05:42.441Z,20.30
2018-04-02T06:08:09.533Z,20.90
2018-04-02T06:10:37.533Z,20.70
2018-04-02T06:13:05.124Z,20.80
2018-04-02T06:15:32.972Z,20.80
2018-04-02T06:18:00.704Z,20.00
2018-04-02T06:20:27.658Z,20.10
2018-04-02T06:22:55.289Z,20.20
2018-04-02T06:25:22.304Z,20.00
2018-04-02T06:27:50.848Z,20.10
2018-04-02T06:30:17.676Z,19.50
2018-04-02T06:32:44.653Z,19.80
2018-04-02T06:35:12.537Z,19.80
2018-04-02T06:37:39.340Z,19.90
2018-04-02T06:40:06.635Z,20.10
2018-04-02T06:42:34.408Z,20.00
2018-04-02T06:45:01.570Z,20.10
2018-04-02T06:47:28.833Z,20.00
2018-04-02T06:49:56.588Z,20.00
2018-04-02T06:52:23.535Z,19.90
2018-04-02T06:54:50.598Z,20.20
2018-04-02T06:57:18.333Z,20.20
2018-04-02T06:59:45.308Z,20.20
2018-04-02T07:02:12.248Z,20.10
2018-04-02T07:04:39.887Z,20.10
2018-04-02T07:07:06.987Z,20.20
2018-04-02T07:09:34.265Z,20.10
2018-04-02T07:12:01.469Z,20.00
2018-04-02T07:14:28.438Z,20.20
2018-04-02T07:16:55.492Z,20.00
2018-04-02T07:19:22.859Z,20.00
2018-04-02T07:21:49.768Z,20.00
2018-04-02T07:24:16.768Z,19.90
2018-04-02T07:26:44.294Z,19.90
2018-04-02T07:29:11.282Z,20.00
2018-04-02T07:31:38.327Z,19.90
2018-04-02T07:34:06.017Z,20.10
2018-04-02T07:36:33.716Z,20.00
2018-04-02T07:39:00.716Z,20.00
2018-04-02T07:41:28.605Z,20.00
2018-04-02T07:43:56.360Z,20.00
2018-04-02T07:46:24.859Z,20.70
2018-04-02T07:48:52.700Z,20.70
2018-04-02T07:51:20.688Z,20.20
2018-04-02T07:53:47.711Z,20.30
2018-04-02T07:56:14.800Z,20.70
2018-04-02T07:58:41.748Z,20.10
2018-04-02T08:01:09.301Z,20.60
2018-04-02T08:03:36.302Z,20.80
2018-04-02T08:06:03.308Z,20.10
2018-04-02T08:08:31.087Z,20.50
2018-04-02T08:10:58.825Z,20.60
2018-04-02T08:13:25.895Z,20.10
2018-04-02T08:15:53.270Z,20.20
2018-04-02T08:18:21.136Z,20.10
2018-04-02T08:20:49.163Z,20.30
2018-04-02T08:23:16.212Z,20.70
2018-04-02T08:25:43.412Z,20.10
2018-04-02T08:28:11.445Z,20.20
2018-04-02T08:30:38.544Z,20.00
2018-04-02T08:33:05.714Z,20.20
2018-04-02T08:35:33.070Z,20.00
2018-04-02T08:38:01.032Z,20.10
2018-04-02T08:40:28.021Z,20.00
2018-04-02T08:42:55.449Z,20.20
2018-04-02T08:45:22.649Z,19.90
2018-04-02T08:47:50.408Z,19.90
2018-04-02T08:50:17.272Z,19.90
2018-04-02T08:52:44.365Z,19.90
2018-04-02T08:55:12.280Z,19.90
2018-04-02T08:57:39.698Z,20.10
2018-04-02T09:00:06.653Z,20.10
2018-04-02T09:02:34.336Z,20.10
2018-04-02T09:05:02.215Z,19.80
2018-04-02T09:07:30.670Z,19.90
2018-04-02T09:09:57.619Z,20.10
2018-04-02T09:12:24.575Z,19.90
2018-04-02T09:14:52.495Z,20.20
2018-04-02T09:17:19.527Z,20.10
2018-04-02T09:19:47.246Z,20.00
2018-04-02T09:22:14.803Z,20.10
2018-04-02T09:24:41.885Z,20.00
2018-04-02T09:27:08.924Z,20.20
2018-04-02T09:29:36.195Z,20.00
2018-04-02T09:32:04.042Z,19.90
2018-04-02T09:34:32.007Z,20.00
2018-04-02T09:36:58.992Z,20.20
2018-04-02T09:39:26.466Z,20.00
2018-04-02T09:41:54.835Z,20.80
2018-04-02T09:44:21.792Z,20.80
2018-04-02T09:46:48.642Z,20.90
2018-04-02T09:49:15.698Z,21.40
2018-04-02T09:51:43.553Z,21.60
2018-04-02T09:54:10.550Z,21.70
2018-04-02T09:56:38.196Z,22.40
2018-04-02T09:59:06.226Z,22.60
2018-04-02T10:01:33.308Z,22.50
2018-04-02T10:04:00.480Z,22.60
2018-04-02T10:06:28.664Z,23.30
2018-04-02T10:08:56.281Z,23.60
2018-04-02T10:11:24.419Z,23.80
2018-04-02T10:13:51.429Z,24.00
2018-04-02T10:16:18.380Z,24.10
2018-04-02T10:18:45.348Z,24.30
2018-04-02T10:21:13.325Z,24.60
2018-04-02T10:23:41.090Z,24.60
2018-04-02T10:26:09.680Z,24.30
2018-04-02T10:28:37.355Z,24.50
2018-04-02T10:31:05.204Z,24.40
2018-04-02T10:33:33.074Z,24.50
2018-04-02T10:36:00.217Z,24.40
2018-04-02T10:38:27.296Z,23.80
2018-04-02T10:40:55.048Z,23.90
2018-04-02T10:43:22.162Z,23.80
2018-04-02T10:45:49.769Z,24.30
2018-04-02T10:48:17.549Z,24.40
2018-04-02T10:50:44.420Z,24.40
2018-04-02T10:53:12.076Z,24.50
2018-04-02T10:55:39.820Z,24.50
2018-04-02T10:58:06.793Z,23.80
2018-04-02T11:00:34.637Z,23.80
2018-04-02T11:03:02.518Z,24.00
2018-04-02T11:05:29.675Z,23.80
2018-04-02T11:07:57.732Z,24.50
2018-04-02T11:10:24.737Z,24.50
2018-04-02T11:12:52.468Z,24.30
2018-04-02T11:15:20.357Z,24.30
2018-04-02T11:17:47.288Z,23.90
2018-04-02T11:20:14.335Z,24.60
2018-04-02T11:22:42.075Z,24.50
2018-04-02T11:25:09.303Z,24.50
2018-04-02T11:27:37.144Z,24.40
2018-04-02T11:30:04.719Z,24.10
2018-04-02T11:32:31.760Z,24.50
2018-04-02T11:34:59.792Z,24.30
2018-04-02T11:37:26.880Z,24.70
2018-04-02T11:39:53.936Z,24.60
2018-04-02T11:42:20.846Z,24.60
2018-04-02T11:44:48.809Z,24.40
2018-04-02T11:47:15.815Z,24.80
2018-04-02T11:49:42.776Z,24.90
2018-04-02T11:52:11.465Z,24.50
2018-04-02T11:54:39.323Z,23.80
2018-04-02T11:57:06.365Z,24.50
2018-04-02T11:59:33.743Z,24.40
2018-04-02T12:02:01.536Z,24.50
2018-04-02T12:04:30.066Z,23.90
2018-04-02T12:06:57.153Z,23.70
2018-04-02T12:09:26.028Z,23.70
2018-04-02T12:11:52.888Z,23.60
2018-04-02T12:14:19.941Z,23.80
2018-04-02T12:16:46.977Z,23.70
2018-04-02T12:19:14.783Z,23.80
2018-04-02T12:21:42.624Z,23.50
2018-04-02T12:24:09.584Z,23.70
2018-04-02T12:26:37.149Z,23.20
2018-04-02T12:29:04.368Z,23.00
2018-04-02T12:31:31.560Z,22.80
2018-04-02T12:33:58.987Z,23.10
2018-04-02T12:36:25.857Z,23.00
2018-04-02T12:38:53.134Z,22.80
2018-04-02T12:41:20.997Z,22.40
2018-04-02T12:43:48.028Z,22.70
2018-04-02T12:46:15.215Z,22.70
2018-04-02T12:48:42.989Z,22.20
2018-04-02T12:51:10.849Z,22.20
2018-04-02T12:53:38.839Z,22.20
2018-04-02T12:56:05.783Z,22.20
2018-04-02T12:58:32.846Z,22.40
2018-04-02T13:01:00.689Z,22.70
2018-04-02T13:03:27.806Z,22.60
2018-04-02T13:05:54.894Z,22.30
2018-04-02T13:08:21.948Z,22.70
2018-04-02T13:10:49.880Z,22.80
2018-04-02T13:13:17.764Z,22.90
2018-04-02T13:15:45.589Z,23.00
2018-04-02T13:18:12.733Z,22.90
2018-04-02T13:20:39.632Z,23.10
2018-04-02T13:23:07.414Z,23.00
2018-04-02T13:25:34.550Z,23.40
2018-04-02T13:28:01.661Z,23.40
2018-04-02T13:30:28.613Z,23.10
2018-04-02T13:32:56.184Z,23.10
2018-04-02T13:35:23.323Z,23.20
2018-04-02T13:37:50.261Z,23.50
2018-04-02T13:40:18.325Z,23.50
2018-04-02T13:42:45.416Z,23.60
2018-04-02T13:45:13.824Z,23.10
2018-04-02T13:47:40.761Z,23.10
2018-04-02T13:50:08.400Z,23.40
2018-04-02T13:52:36.316Z,22.90
2018-04-02T13:55:04.009Z,22.90
2018-04-02T13:57:31.112Z,23.00
2018-04-02T13:59:59.193Z,22.90
2018-04-02T14:02:27.046Z,23.00
2018-04-02T14:04:54.869Z,22.80
2018-04-02T14:07:21.984Z,22.80
2018-04-02T14:09:49.124Z,22.80
2018-04-02T14:12:17.824Z,22.80
2018-04-02T14:14:44.798Z,22.80
2018-04-02T14:17:12.553Z,22.70
2018-04-02T14:19:39.896Z,22.70
2018-04-02T14:22:06.921Z,22.70
2018-04-02T14:24:33.767Z,22.70
2018-04-02T14:27:01.130Z,22.70
2018-04-02T14:29:27.996Z,22.30
2018-04-02T14:31:55.056Z,22.30
2018-04-02T14:34:23.172Z,22.30
2018-04-02T14:36:50.236Z,22.20
2018-04-02T14:39:17.195Z,22.20
2018-04-02T14:41:44.089Z,22.20
2018-04-02T14:44:11.563Z,22.10
2018-04-02T14:46:39.193Z,22.70
2018-04-02T14:49:06.853Z,22.10
2018-04-02T14:51:33.918Z,22.20
2018-04-02T14:54:01.004Z,22.20
2018-04-02T14:56:29.510Z,22.10
2018-04-02T14:58:56.428Z,22.20
2018-04-02T15:01:23.605Z,22.10
2018-04-02T15:03:51.957Z,22.10
2018-04-02T15:06:19.011Z,22.20
2018-04-02T15:08:46.092Z,22.10
2018-04-02T15:11:14.218Z,22.10
2018-04-02T15:13:41.399Z,22.10
2018-04-02T15:16:08.327Z,22.10
2018-04-02T15:18:36.077Z,22.30
2018-04-02T15:21:03.292Z,22.10
2018-04-02T15:23:32.778Z,22.10
2018-04-02T15:25:59.739Z,22.00
2018-04-02T15:28:26.781Z,22.00
2018-04-02T15:30:54.937Z,22.10
2018-04-02T15:33:21.948Z,22.10
2018-04-02T15:35:50.436Z,22.10
2018-04-02T15:38:18.032Z,22.10
2018-04-02T15:40:44.969Z,22.10
2018-04-02T15:43:12.793Z,22.10
2018-04-02T15:45:40.702Z,21.90
2018-04-02T15:48:07.607Z,22.10
2018-04-02T15:50:35.368Z,22.00
2018-04-02T15:53:02.435Z,22.00
2018-04-02T15:55:29.485Z,21.90
2018-04-02T15:57:58.075Z,21.40
2018-04-02T16:00:25.117Z,22.00
2018-04-02T16:02:52.080Z,21.50
2018-04-02T16:05:19.533Z,21.50
2018-04-02T16:07:46.444Z,21.30
2018-04-02T16:10:13.316Z,21.40
2018-04-02T16:12:41.119Z,21.50
2018-04-02T16:15:08.920Z,21.90
2018-04-02T16:17:35.913Z,21.60
2018-04-02T16:20:03.775Z,21.60
2018-04-02T16:22:30.723Z,21.90
2018-04-02T16:24:57.591Z,21.50
2018-04-02T16:27:25.463Z,21.40
2018-04-02T16:29:52.417Z,21.40
2018-04-02T16:32:19.573Z,21.90
2018-04-02T16:34:47.390Z,22.00
2018-04-02T16:37:14.384Z,21.50
2018-04-02T16:39:41.749Z,21.40
2018-04-02T16:42:08.721Z,21.30
2018-04-02T16:44:36.461Z,21.50
2018-04-02T16:47:03.519Z,21.60
2018-04-02T16:49:30.555Z,21.40
2018-04-02T16:51:58.357Z,21.30
2018-04-02T16:54:25.414Z,21.50
2018-04-02T16:56:53.880Z,21.90
2018-04-02T16:59:20.830Z,21.90
2018-04-02T17:01:47.776Z,21.70
2018-04-02T17:04:15.563Z,21.60
2018-04-02T17:06:43.441Z,21.50
2018-04-02T17:09:11.192Z,21.40
2018-04-02T17:11:38.642Z,21.40
2018-04-02T17:14:05.909Z,21.40
2018-04-02T17:16:33.067Z,21.50
2018-04-02T17:19:00.666Z,21.40
2018-04-02T17:21:27.698Z,21.50
2018-04-02T17:23:56.218Z,21.40
2018-04-02T17:26:23.454Z,21.40
2018-04-02T17:28:51.307Z,21.40
2018-04-02T17:31:19.288Z,21.40
2018-04-02T17:33:46.345Z,21.50
2018-04-02T17:36:13.953Z,21.50
2018-04-02T17:38:41.496Z,21.50
2018-04-02T17:41:08.810Z,21.50
2018-04-02T17:43:35.845Z,21.90
2018-04-02T17:46:03.684Z,21.40
2018-04-02T17:48:30.825Z,21.30
2018-04-02T17:50:58.777Z,21.50
2018-04-02T17:53:26.641Z,21.50
2018-04-02T17:55:53.593Z,21.50
2018-04-02T17:58:20.529Z,21.50
2018-04-02T18:00:48.318Z,21.50
2018-04-02T18:03:15.264Z,21.50
2018-04-02T18:05:42.316Z,21.30
2018-04-02T18:08:10.071Z,21.30
2018-04-02T18:10:37.361Z,21.50
2018-04-02T18:13:05.201Z,21.30
2018-04-02T18:15:33.288Z,21.30
2018-04-02T18:18:00.341Z,21.40
2018-04-02T18:20:28.113Z,21.30
2018-04-02T18:22:55.185Z,21.30
2018-04-02T18:25:22.765Z,21.40
2018-04-02T18:27:50.691Z,21.40
2018-04-02T18:30:17.645Z,21.30
2018-04-02T18:32:44.702Z,21.30
2018-04-02T18:35:12.450Z,21.40
2018-04-02T18:37:39.457Z,21.30
2018-04-02T18:40:06.679Z,21.40
2018-04-02T18:42:34.441Z,21.40
2018-04-02T18:45:01.823Z,21.20
2018-04-02T18:47:30.408Z,22.10
2018-04-02T18:49:57.328Z,22.00
2018-04-02T18:52:24.507Z,22.90
2018-04-02T18:54:51.445Z,23.20
